Time;durP1;ratioP1;P1;durP2;ratioP2;P2;SDS_P1;SDS_P2;PMS_P1;PMS_P2;Temp;Humidity;BMP_temperature;BMP_pressure;BME280_temperature;BME280_humidity;BME280_pressure;Samples;Min_cycle;Max_cycle;Signal;HPM_P1;HPM_P2
2023/10/28 00:00:45;;;;;;;19.40;10.75;;;10.10;99.90;;;;;;5077904;28;20056;-77
2023/10/28 00:03:12;;;;;;;16.65;10.30;;;10.10;99.90;;;;;;5077929;28;20480;-76
2023/10/28 00:05:39;;;;;;;19.25;11.32;;;10.10;99.90;;;;;;5077544;28;20055;-75
2023/10/28 00:08:08;;;;;;;16.73;10.55;;;10.10;99.90;;;;;;5077963;28;20104;-75
2023/10/28 00:10:36;;;;;;;16.83;10.82;;;10.10;99.90;;;;;;5074352;28;20450;-75
2023/10/28 00:13:04;;;;;;;18.98;11.95;;;10.10;99.90;;;;;;5077097;28;20044;-75
2023/10/28 00:15:31;;;;;;;18.42;10.90;;;10.10;99.90;;;;;;5078032;28;20442;-74
2023/10/28 00:17:58;;;;;;;20.33;11.57;;;10.10;99.90;;;;;;5078017;28;20109;-74
2023/10/28 00:20:29;;;;;;;18.27;11.55;;;10.10;99.90;;;;;;5077178;28;20105;-75
2023/10/28 00:22:57;;;;;;;19.83;12.18;;;10.10;99.90;;;;;;5078078;28;20098;-76
2023/10/28 00:25:27;;;;;;;21.13;12.23;;;10.10;99.90;;;;;;5077671;28;20058;-75
2023/10/28 00:27:55;;;;;;;20.03;13.13;;;10.10;99.90;;;;;;5077186;28;20071;-75
2023/10/28 00:30:23;;;;;;;23.30;13.07;;;10.10;99.90;;;;;;5077391;28;20097;-75
2023/10/28 00:32:50;;;;;;;20.17;12.88;;;10.10;99.90;;;;;;5077553;28;20112;-75
2023/10/28 00:35:17;;;;;;;20.40;12.32;;;10.10;99.90;;;;;;5076896;28;20052;-76
2023/10/28 00:37:44;;;;;;;19.02;12.88;;;10.10;99.90;;;;;;5077573;28;20051;-75
2023/10/28 00:40:12;;;;;;;21.13;13.40;;;10.10;99.90;;;;;;5077529;28;20048;-75
2023/10/28 00:42:41;;;;;;;29.42;14.13;;;10.10;99.90;;;;;;5076743;28;20561;-75
2023/10/28 00:45:11;;;;;;;24.02;15.00;;;10.50;99.90;;;;;;5077124;28;20044;-75
2023/10/28 00:47:43;;;;;;;23.58;14.07;;;10.10;99.90;;;;;;5076926;28;20412;-75
2023/10/28 00:50:12;;;;;;;21.27;14.32;;;10.10;99.90;;;;;;5077152;28;20085;-75
2023/10/28 00:52:41;;;;;;;24.23;14.93;;;10.10;99.90;;;;;;5072834;28;20454;-74
2023/10/28 00:55:10;;;;;;;24.83;14.85;;;10.20;99.90;;;;;;5076424;28;20040;-75
2023/10/28 00:57:37;;;;;;;24.95;15.13;;;10.20;99.90;;;;;;5077162;28;20068;-75
2023/10/28 01:00:08;;;;;;;25.90;15.20;;;10.20;99.90;;;;;;5073341;28;20428;-75
2023/10/28 01:02:35;;;;;;;28.38;16.65;;;10.20;99.90;;;;;;5074003;28;20049;-74
2023/10/28 01:05:03;;;;;;;25.90;15.55;;;10.20;99.90;;;;;;5069263;28;20457;-75
2023/10/28 01:07:31;;;;;;;27.88;16.77;;;10.20;99.90;;;;;;5073562;28;20132;-75
2023/10/28 01:09:58;;;;;;;27.92;17.98;;;10.20;99.90;;;;;;5073222;28;20044;-74
2023/10/28 01:12:26;;;;;;;29.58;16.90;;;10.20;99.90;;;;;;5073565;28;20732;-75
2023/10/28 01:14:53;;;;;;;28.95;17.27;;;10.20;99.90;;;;;;5073111;28;20041;-75
2023/10/28 01:17:25;;;;;;;27.90;18.10;;;10.30;99.90;;;;;;5072729;28;20048;-74
2023/10/28 01:19:52;;;;;;;31.02;18.35;;;10.20;99.90;;;;;;5073420;28;20123;-74
2023/10/28 01:22:21;;;;;;;32.47;18.33;;;10.30;99.90;;;;;;5073084;28;20090;-74
2023/10/28 01:24:49;;;;;;;29.67;18.35;;;10.30;99.90;;;;;;5072605;28;20056;-74
2023/10/28 01:27:16;;;;;;;29.38;18.65;;;10.30;99.90;;;;;;5073024;28;20559;-74
2023/10/28 01:29:42;;;;;;;35.13;19.70;;;10.30;99.90;;;;;;5072847;28;20102;-75
2023/10/28 01:32:10;;;;;;;33.28;19.73;;;10.30;99.90;;;;;;5073013;28;20049;-76
2023/10/28 01:34:46;;;;;;;27.52;17.45;;;10.30;99.90;;;;;;5068788;28;20044;-74
2023/10/28 01:37:16;;;;;;;31.88;19.10;;;10.30;99.90;;;;;;5069262;28;20094;-76
2023/10/28 01:39:46;;;;;;;34.70;18.85;;;10.30;99.90;;;;;;5072642;28;20049;-74
2023/10/28 01:42:14;;;;;;;30.88;18.98;;;10.30;99.90;;;;;;5073151;28;20071;-75
2023/10/28 01:44:41;;;;;;;34.55;19.92;;;10.30;99.90;;;;;;5068568;28;20078;-76
2023/10/28 01:47:08;;;;;;;33.35;19.60;;;10.40;99.90;;;;;;5073998;28;20448;-75
2023/10/28 01:49:36;;;;;;;33.10;19.20;;;10.30;99.90;;;;;;5072913;28;20473;-75
2023/10/28 01:52:03;;;;;;;35.00;19.23;;;10.30;99.90;;;;;;5072085;28;20127;-76
2023/10/28 01:54:33;;;;;;;34.72;19.52;;;10.40;99.90;;;;;;5073864;28;20112;-76
2023/10/28 01:57:01;;;;;;;30.70;18.73;;;10.40;99.90;;;;;;5072805;28;20055;-74
2023/10/28 01:59:28;;;;;;;33.97;19.83;;;10.40;99.90;;;;;;5072102;28;20098;-76
2023/10/28 02:01:55;;;;;;;33.50;19.55;;;10.40;99.90;;;;;;5075614;28;20109;-75
2023/10/28 02:04:22;;;;;;;32.42;20.35;;;10.40;99.90;;;;;;5075769;28;20055;-75
2023/10/28 02:06:50;;;;;;;34.15;19.30;;;10.40;99.90;;;;;;5075151;28;20548;-76
2023/10/28 02:09:17;;;;;;;33.70;20.20;;;10.40;99.90;;;;;;5075553;28;20105;-74
2023/10/28 02:11:44;;;;;;;32.67;19.30;;;10.40;99.90;;;;;;5075435;28;20051;-75
2023/10/28 02:14:12;;;;;;;35.22;19.77;;;10.40;99.90;;;;;;5074212;28;20434;-74
2023/10/28 02:16:39;;;;;;;41.22;21.85;;;10.30;99.90;;;;;;5075729;28;20497;-74
2023/10/28 02:19:07;;;;;;;38.08;19.77;;;10.30;99.90;;;;;;5075008;28;20104;-73
2023/10/28 02:21:35;;;;;;;37.35;21.08;;;10.30;99.90;;;;;;5093218;28;20565;-74
2023/10/28 02:24:05;;;;;;;36.40;21.45;;;10.30;99.90;;;;;;5075542;28;20040;-74
2023/10/28 02:26:33;;;;;;;37.85;20.20;;;10.30;99.90;;;;;;5070286;28;20427;-74
2023/10/28 02:29:01;;;;;;;32.17;19.15;;;10.30;99.90;;;;;;5075262;28;20056;-74
2023/10/28 02:31:29;;;;;;;34.03;21.00;;;10.30;99.90;;;;;;5075487;28;20446;-74
2023/10/28 02:33:56;;;;;;;35.75;20.33;;;10.20;99.90;;;;;;5074515;28;20044;-75
2023/10/28 02:36:25;;;;;;;32.45;19.90;;;10.10;99.90;;;;;;5075218;28;20051;-73
2023/10/28 02:38:51;;;;;;;38.50;20.33;;;10.10;99.90;;;;;;5075192;28;20517;-78
2023/10/28 02:41:18;;;;;;;31.27;19.38;;;10.10;99.90;;;;;;5092540;28;20052;-79
2023/10/28 02:43:45;;;;;;;36.15;21.05;;;10.00;99.90;;;;;;5075127;28;20048;-78
2023/10/28 02:46:20;;;;;;;36.17;19.98;;;10.00;99.90;;;;;;5075037;28;20047;-78
2023/10/28 02:48:49;;;;;;;34.30;21.42;;;9.90;99.90;;;;;;5074690;28;20377;-78
2023/10/28 02:51:16;;;;;;;32.40;19.83;;;9.90;99.90;;;;;;5074925;28;20096;-76
2023/10/28 02:53:43;;;;;;;37.88;21.60;;;10.00;99.90;;;;;;5074669;28;20105;-77
2023/10/28 02:56:10;;;;;;;37.13;21.95;;;9.80;99.90;;;;;;5087821;28;20119;-76
2023/10/28 02:58:39;;;;;;;37.78;20.90;;;9.80;99.90;;;;;;5075022;28;20189;-75
2023/10/28 03:01:10;;;;;;;34.20;19.73;;;9.80;99.90;;;;;;5074694;28;20101;-76
2023/10/28 03:03:37;;;;;;;30.33;18.77;;;9.70;99.90;;;;;;5074771;28;20056;-76
2023/10/28 03:06:06;;;;;;;33.03;19.67;;;9.70;99.90;;;;;;5081824;28;20070;-76
2023/10/28 03:08:33;;;;;;;37.85;20.67;;;9.70;99.90;;;;;;5081529;28;20086;-75
2023/10/28 03:11:00;;;;;;;32.97;18.83;;;9.70;99.90;;;;;;5082447;28;20089;-76
2023/10/28 03:13:27;;;;;;;32.40;18.50;;;9.70;99.90;;;;;;5081692;28;20058;-75
2023/10/28 03:15:56;;;;;;;29.65;17.38;;;9.70;99.90;;;;;;5074446;28;20044;-75
2023/10/28 03:18:23;;;;;;;29.83;17.70;;;9.70;99.90;;;;;;5071027;28;20056;-76
2023/10/28 03:20:50;;;;;;;28.35;17.27;;;9.60;99.90;;;;;;5074319;28;20056;-75
2023/10/28 03:23:18;;;;;;;30.27;18.10;;;9.60;99.90;;;;;;5074106;28;20052;-78
2023/10/28 03:25:45;;;;;;;33.92;17.42;;;9.60;99.90;;;;;;5092355;28;20682;-77
2023/10/28 03:28:12;;;;;;;31.92;18.40;;;9.60;99.90;;;;;;5092323;28;20085;-76
2023/10/28 03:30:39;;;;;;;29.92;18.02;;;9.60;99.90;;;;;;5091870;28;20051;-75
2023/10/28 03:33:06;;;;;;;29.98;17.45;;;9.60;99.90;;;;;;5074353;28;20105;-74
2023/10/28 03:35:33;;;;;;;33.03;18.20;;;9.60;99.90;;;;;;5074268;28;20050;-74
2023/10/28 03:38:00;;;;;;;31.48;18.55;;;9.60;99.90;;;;;;5073940;28;20085;-73
2023/10/28 03:40:29;;;;;;;26.55;17.58;;;9.60;99.90;;;;;;5074510;28;20059;-73
2023/10/28 03:42:55;;;;;;;30.20;18.75;;;9.50;99.90;;;;;;5074347;28;20101;-74
2023/10/28 03:45:22;;;;;;;33.38;18.15;;;9.50;99.90;;;;;;5073506;28;20093;-74
2023/10/28 03:47:49;;;;;;;30.67;17.10;;;9.50;99.90;;;;;;5073902;28;20052;-76
2023/10/28 03:50:16;;;;;;;31.83;17.10;;;9.50;99.90;;;;;;5074292;28;20048;-75
2023/10/28 03:52:43;;;;;;;28.42;15.65;;;9.50;99.90;;;;;;5073669;28;20052;-75
2023/10/28 03:55:10;;;;;;;28.13;17.20;;;9.50;99.90;;;;;;5073777;28;20036;-74
2023/10/28 03:57:38;;;;;;;28.52;17.35;;;9.40;99.90;;;;;;5073105;28;20113;-75
2023/10/28 04:00:11;;;;;;;35.42;16.40;;;9.40;99.90;;;;;;5073973;28;20117;-75
2023/10/28 04:02:38;;;;;;;30.95;16.60;;;9.40;99.90;;;;;;5074208;28;20130;-74
2023/10/28 04:05:06;;;;;;;30.77;17.17;;;9.50;99.90;;;;;;5073606;28;20090;-74
2023/10/28 04:07:33;;;;;;;24.17;16.10;;;9.40;99.90;;;;;;5074021;28;20131;-75
2023/10/28 04:10:03;;;;;;;28.05;16.70;;;9.50;99.90;;;;;;5074071;28;20051;-74
2023/10/28 04:12:32;;;;;;;25.45;15.88;;;9.50;99.90;;;;;;5073418;28;20044;-75
2023/10/28 04:15:00;;;;;;;26.40;15.90;;;9.50;99.90;;;;;;5073632;28;20492;-74
2023/10/28 04:17:30;;;;;;;25.25;15.32;;;9.50;99.90;;;;;;5073644;28;20051;-73
2023/10/28 04:19:59;;;;;;;23.92;14.90;;;9.50;99.90;;;;;;5070020;28;20415;-74
2023/10/28 04:22:28;;;;;;;28.40;15.85;;;9.50;99.90;;;;;;5073584;28;20048;-74
2023/10/28 04:24:55;;;;;;;29.23;15.55;;;9.50;99.90;;;;;;5074140;28;20048;-74
2023/10/28 04:27:22;;;;;;;24.92;15.95;;;9.50;99.90;;;;;;5073591;28;20047;-74
2023/10/28 04:29:50;;;;;;;27.13;14.52;;;9.50;99.90;;;;;;5074054;28;20052;-74
2023/10/28 04:32:22;;;;;;;22.55;14.90;;;9.50;99.90;;;;;;5073956;28;20052;-74
2023/10/28 04:34:49;;;;;;;24.13;15.07;;;9.40;99.90;;;;;;5073222;28;20040;-74
2023/10/28 04:37:16;;;;;;;23.73;15.82;;;9.50;99.90;;;;;;5075571;28;20101;-75
2023/10/28 04:39:43;;;;;;;24.60;14.57;;;9.50;99.90;;;;;;5076941;28;20048;-75
2023/10/28 04:42:10;;;;;;;28.13;16.00;;;9.40;99.90;;;;;;5077230;28;20059;-75
2023/10/28 04:44:37;;;;;;;27.83;16.52;;;9.50;99.90;;;;;;5072906;28;20089;-75
2023/10/28 04:47:04;;;;;;;27.38;15.38;;;9.50;99.90;;;;;;5076860;28;20056;-75
2023/10/28 04:49:32;;;;;;;29.60;14.93;;;9.50;99.90;;;;;;5077262;28;20101;-76
2023/10/28 04:51:59;;;;;;;25.77;14.65;;;9.50;99.90;;;;;;5076984;28;20048;-75
2023/10/28 04:54:26;;;;;;;23.38;16.67;;;9.50;99.90;;;;;;5076813;28;20450;-76
2023/10/28 04:56:54;;;;;;;28.70;15.68;;;9.50;99.90;;;;;;5095130;28;20047;-76
2023/10/28 04:59:20;;;;;;;25.77;15.20;;;9.50;99.90;;;;;;5077375;28;20482;-76
2023/10/28 05:01:47;;;;;;;24.80;14.90;;;9.60;99.90;;;;;;5076006;28;20097;-76
2023/10/28 05:04:15;;;;;;;26.70;13.60;;;9.50;99.90;;;;;;5095027;28;20055;-76
2023/10/28 05:06:44;;;;;;;30.13;16.48;;;9.50;99.90;;;;;;5076920;28;20044;-76
2023/10/28 05:09:15;;;;;;;26.10;15.00;;;9.60;99.90;;;;;;5076640;28;20052;-76
2023/10/28 05:11:42;;;;;;;24.27;15.77;;;9.60;99.90;;;;;;5073651;28;20051;-76
2023/10/28 05:14:11;;;;;;;26.75;15.80;;;9.60;99.90;;;;;;5076895;28;20079;-77
2023/10/28 05:16:38;;;;;;;31.48;16.50;;;9.60;99.90;;;;;;5076279;28;20055;-76
2023/10/28 05:19:05;;;;;;;31.10;15.90;;;9.60;99.90;;;;;;5076579;28;20101;-76
2023/10/28 05:21:32;;;;;;;32.33;16.65;;;9.60;99.90;;;;;;5076653;28;20053;-76
2023/10/28 05:24:00;;;;;;;32.63;16.42;;;9.60;99.90;;;;;;5094019;28;20101;-72
2023/10/28 05:26:27;;;;;;;25.88;15.15;;;9.70;99.90;;;;;;5076544;28;20089;-74
2023/10/28 05:28:54;;;;;;;29.40;15.10;;;9.70;99.90;;;;;;5071878;28;20052;-76
2023/10/28 05:31:21;;;;;;;25.63;14.63;;;9.70;99.90;;;;;;5076713;28;20131;-76
2023/10/28 05:33:48;;;;;;;27.83;15.52;;;9.70;99.90;;;;;;5076762;28;20113;-77
2023/10/28 05:36:16;;;;;;;35.72;17.02;;;9.70;99.90;;;;;;5075544;28;20504;-78
2023/10/28 05:38:43;;;;;;;27.52;15.65;;;9.70;99.90;;;;;;5076252;28;20217;-75
2023/10/28 05:41:11;;;;;;;30.73;15.30;;;9.80;99.90;;;;;;5076603;28;20110;-74
2023/10/28 05:43:38;;;;;;;28.90;15.90;;;9.70;99.90;;;;;;5075962;28;20056;-74
2023/10/28 05:46:06;;;;;;;28.70;15.45;;;9.80;99.90;;;;;;5076434;28;20116;-76
2023/10/28 05:48:33;;;;;;;34.35;15.13;;;9.80;99.90;;;;;;5075201;28;20462;-75
2023/10/28 05:51:02;;;;;;;33.90;15.60;;;9.80;99.90;;;;;;5075839;28;20127;-76
2023/10/28 05:53:29;;;;;;;30.92;15.57;;;9.80;99.90;;;;;;5075834;28;20522;-76
2023/10/28 05:55:57;;;;;;;29.08;15.93;;;9.80;99.90;;;;;;5075904;28;20046;-76
2023/10/28 05:58:25;;;;;;;34.60;15.93;;;9.80;99.90;;;;;;5075677;28;20400;-77
2023/10/28 06:00:54;;;;;;;30.67;16.27;;;9.80;99.90;;;;;;5075693;28;20109;-76
2023/10/28 06:03:21;;;;;;;31.00;16.10;;;9.80;99.90;;;;;;5075843;28;20122;-74
2023/10/28 06:05:48;;;;;;;29.23;15.70;;;9.80;99.90;;;;;;5075548;28;20057;-76
2023/10/28 06:08:14;;;;;;;30.98;15.32;;;9.80;99.90;;;;;;5075722;28;20051;-73
2023/10/28 06:10:41;;;;;;;35.25;16.15;;;9.80;99.90;;;;;;5074585;28;20108;-74
2023/10/28 06:13:09;;;;;;;32.58;16.23;;;9.90;99.90;;;;;;5075365;28;20075;-72
2023/10/28 06:15:38;;;;;;;29.30;15.43;;;9.90;99.90;;;;;;5063849;28;20056;-74
2023/10/28 06:18:05;;;;;;;26.65;14.52;;;9.90;99.90;;;;;;5070083;28;20052;-72
2023/10/28 06:20:32;;;;;;;30.05;16.17;;;9.80;99.90;;;;;;5066534;28;20055;-73
2023/10/28 06:22:59;;;;;;;30.30;15.65;;;9.90;99.90;;;;;;5065975;28;20097;-73
2023/10/28 06:25:26;;;;;;;29.85;15.10;;;9.90;99.90;;;;;;5067848;28;20966;-72
2023/10/28 06:27:53;;;;;;;24.67;14.10;;;9.90;99.90;;;;;;5071990;28;20043;-74
2023/10/28 06:30:20;;;;;;;22.75;14.55;;;9.90;99.90;;;;;;5066786;28;20106;-74
2023/10/28 06:32:49;;;;;;;22.73;14.30;;;9.90;99.90;;;;;;5068508;28;20060;-73
2023/10/28 06:35:16;;;;;;;28.70;14.82;;;9.90;99.90;;;;;;5067715;28;20044;-73
2023/10/28 06:37:43;;;;;;;28.38;13.93;;;9.90;99.90;;;;;;5070722;28;20144;-73
2023/10/28 06:40:10;;;;;;;28.88;13.38;;;10.00;99.90;;;;;;5067425;28;20052;-74
2023/10/28 06:42:38;;;;;;;22.23;13.73;;;10.00;99.90;;;;;;5069473;28;20491;-74
2023/10/28 06:45:06;;;;;;;23.48;13.73;;;10.00;99.90;;;;;;5072471;28;20052;-73
2023/10/28 06:47:33;;;;;;;27.35;14.57;;;10.00;99.90;;;;;;5083414;28;20535;-73
2023/10/28 06:50:04;;;;;;;25.25;12.90;;;10.00;99.90;;;;;;5088517;28;20507;-73
2023/10/28 06:52:32;;;;;;;21.73;12.75;;;10.00;99.90;;;;;;5071997;28;20059;-73
2023/10/28 06:55:00;;;;;;;21.15;13.52;;;10.10;99.90;;;;;;5073370;28;20051;-73
2023/10/28 06:57:30;;;;;;;18.50;12.20;;;10.10;99.90;;;;;;5071435;28;20039;-74
2023/10/28 06:59:57;;;;;;;22.58;12.43;;;10.10;99.90;;;;;;5071194;28;20055;-74
2023/10/28 07:02:24;;;;;;;21.77;11.48;;;10.20;99.90;;;;;;5087521;28;20063;-73
2023/10/28 07:04:51;;;;;;;18.55;11.43;;;10.20;99.90;;;;;;5070667;28;20048;-75
2023/10/28 07:07:19;;;;;;;19.30;10.95;;;10.20;99.90;;;;;;5069254;28;20492;-73
2023/10/28 07:09:46;;;;;;;19.98;11.20;;;10.30;99.90;;;;;;5070689;28;20561;-74
2023/10/28 07:12:13;;;;;;;18.17;10.48;;;10.30;99.90;;;;;;5068324;28;20054;-72
2023/10/28 07:14:40;;;;;;;18.13;10.32;;;10.40;99.90;;;;;;5070560;28;20452;-76
2023/10/28 07:17:10;;;;;;;17.38;10.02;;;10.30;99.90;;;;;;5067609;28;20565;-78
2023/10/28 07:19:40;;;;;;;19.30;10.10;;;10.30;99.90;;;;;;5071527;28;20051;-77
2023/10/28 07:22:07;;;;;;;;;;;10.30;99.90;;;;;;5069145;28;20070;-77
2023/10/28 07:24:35;;;;;;;14.75;9.80;;;10.30;99.90;;;;;;5070174;28;19923;-77
2023/10/28 07:27:04;;;;;;;15.00;9.50;;;10.40;99.90;;;;;;5052473;28;20127;-76
2023/10/28 07:29:31;;;;;;;20.48;9.60;;;10.40;99.90;;;;;;5072031;28;20056;-75
2023/10/28 07:31:58;;;;;;;15.68;9.05;;;10.40;99.90;;;;;;5061730;28;20462;-72
2023/10/28 07:34:25;;;;;;;15.18;8.18;;;10.50;99.90;;;;;;5066765;28;20048;-75
2023/10/28 07:36:52;;;;;;;13.70;7.95;;;10.50;99.90;;;;;;5068112;28;20044;-75
2023/10/28 07:39:19;;;;;;;16.50;8.40;;;10.60;99.90;;;;;;5064692;28;20149;-75
2023/10/28 07:41:47;;;;;;;13.68;7.15;;;10.60;99.90;;;;;;5062850;28;20580;-76
2023/10/28 07:44:14;;;;;;;23.40;9.10;;;11.10;99.90;;;;;;5087095;28;20093;-76
2023/10/28 07:46:41;;;;;;;11.50;7.03;;;10.60;99.90;;;;;;5066241;28;20044;-73
2023/10/28 07:49:07;;;;;;;11.27;6.93;;;10.70;99.90;;;;;;5071067;28;20090;-74
2023/10/28 07:51:35;;;;;;;11.75;7.53;;;10.70;99.90;;;;;;5068491;28;20151;-73
2023/10/28 07:54:02;;;;;;;13.82;7.45;;;10.80;99.90;;;;;;5070516;28;20138;-75
2023/10/28 07:56:29;;;;;;;18.00;7.50;;;10.80;99.90;;;;;;5070499;28;20046;-75
2023/10/28 07:58:59;;;;;;;10.25;6.20;;;10.80;99.90;;;;;;5068921;28;20044;-74
2023/10/28 08:01:28;;;;;;;13.27;5.50;;;10.80;99.90;;;;;;5065205;28;20059;-75
2023/10/28 08:03:55;;;;;;;9.75;5.63;;;10.90;99.90;;;;;;5065314;28;20130;-74
2023/10/28 08:06:22;;;;;;;9.45;6.00;;;11.00;99.90;;;;;;5070029;28;20444;-76
2023/10/28 08:08:52;;;;;;;7.35;5.05;;;11.30;99.90;;;;;;5065958;28;20569;-75
2023/10/28 08:11:21;;;;;;;9.00;5.10;;;12.20;99.90;;;;;;5063180;28;20059;-74
2023/10/28 08:13:49;;;;;;;9.10;5.03;;;13.10;99.90;;;;;;5070443;28;20048;-75
2023/10/28 08:16:19;;;;;;;7.32;4.13;;;14.10;99.90;;;;;;5075199;28;20055;-76
2023/10/28 08:18:46;;;;;;;6.25;4.03;;;15.00;99.90;;;;;;5069996;28;20189;-75
2023/10/28 08:21:14;;;;;;;7.85;4.30;;;15.90;99.90;;;;;;5074027;28;20169;-75
2023/10/28 08:23:40;;;;;;;6.88;3.60;;;16.20;99.90;;;;;;5087702;28;20048;-76
2023/10/28 08:26:10;;;;;;;4.93;3.58;;;15.90;99.90;;;;;;5076460;28;20056;-76
2023/10/28 08:28:40;;;;;;;5.45;3.60;;;15.40;99.90;;;;;;5071848;28;20091;-76
2023/10/28 08:31:08;;;;;;;8.73;3.88;;;15.10;99.90;;;;;;5076270;28;20569;-76
2023/10/28 08:33:37;;;;;;;7.00;4.35;;;14.50;99.90;;;;;;5071225;28;20136;-76
2023/10/28 08:36:04;;;;;;;7.38;4.80;;;14.10;99.90;;;;;;5063793;28;20462;-76
2023/10/28 08:38:32;;;;;;;8.88;4.47;;;13.50;99.90;;;;;;5072390;28;20087;-76
2023/10/28 08:41:01;;;;;;;6.80;3.83;;;13.10;99.90;;;;;;5070007;28;20052;-76
2023/10/28 08:43:28;;;;;;;4.72;3.60;;;12.80;99.90;;;;;;5072697;28;20381;-75
2023/10/28 08:45:55;;;;;;;8.18;4.47;;;12.50;99.90;;;;;;5072774;28;20036;-74
2023/10/28 08:48:23;;;;;;;6.40;4.53;;;12.40;99.90;;;;;;5071155;28;20048;-74
2023/10/28 08:50:54;;;;;;;7.28;4.30;;;12.20;99.90;;;;;;5070538;28;20048;-74
2023/10/28 08:53:23;;;;;;;9.75;4.78;;;12.20;99.90;;;;;;5073330;28;20052;-74
2023/10/28 08:55:50;;;;;;;7.38;4.10;;;12.10;99.90;;;;;;5072907;28;20058;-75
2023/10/28 08:58:20;;;;;;;7.38;4.45;;;12.00;99.90;;;;;;5072950;28;20139;-73
2023/10/28 09:00:48;;;;;;;9.07;4.63;;;12.00;99.90;;;;;;5070577;28;20109;-74
2023/10/28 09:03:15;;;;;;;7.95;4.05;;;12.00;99.90;;;;;;5089127;28;20043;-74
2023/10/28 09:05:42;;;;;;;7.10;4.00;;;12.10;99.90;;;;;;5071431;28;20062;-74
2023/10/28 09:08:11;;;;;;;6.70;4.07;;;12.10;99.90;;;;;;5068550;28;20056;-73
2023/10/28 09:10:40;;;;;;;10.38;4.30;;;12.10;99.90;;;;;;5086367;28;20056;-74
2023/10/28 09:13:07;;;;;;;6.93;4.28;;;12.10;99.90;;;;;;5068442;28;20527;-74
2023/10/28 09:15:35;;;;;;;7.72;4.38;;;12.10;99.90;;;;;;5069995;28;20487;-73
2023/10/28 09:18:02;;;;;;;7.80;4.80;;;12.00;99.90;;;;;;5073435;28;20131;-74
2023/10/28 09:20:29;;;;;;;9.32;4.45;;;12.20;99.90;;;;;;5072997;28;20568;-74
2023/10/28 09:22:56;;;;;;;8.43;4.47;;;11.90;99.90;;;;;;5070501;28;20459;-74
2023/10/28 09:25:24;;;;;;;7.97;4.40;;;11.90;99.90;;;;;;5072164;28;20569;-74
2023/10/28 09:27:52;;;;;;;7.18;4.28;;;11.80;99.90;;;;;;5092274;28;20450;-74
2023/10/28 09:30:21;;;;;;;8.40;4.05;;;11.80;99.90;;;;;;5068501;28;20071;-73
2023/10/28 09:32:48;;;;;;;7.47;4.18;;;11.80;99.90;;;;;;5072254;28;20123;-73
2023/10/28 09:35:15;;;;;;;7.47;4.07;;;11.80;99.90;;;;;;5087721;28;20056;-73
2023/10/28 09:37:44;;;;;;;6.57;3.90;;;11.90;99.90;;;;;;5071127;28;20082;-73
2023/10/28 09:40:12;;;;;;;6.85;4.10;;;11.90;99.90;;;;;;5072631;28;20048;-74
2023/10/28 09:42:43;;;;;;;7.65;3.72;;;12.00;99.90;;;;;;5071328;28;20093;-73
2023/10/28 09:45:10;;;;;;;5.93;3.70;;;12.10;99.90;;;;;;5072046;28;20044;-73
2023/10/28 09:47:48;;;;;;;8.45;3.83;;;12.20;99.90;;;;;;5069960;28;20492;-73
2023/10/28 09:50:16;;;;;;;7.38;3.53;;;12.20;99.90;;;;;;5065263;28;20071;-73
2023/10/28 09:52:45;;;;;;;6.13;3.40;;;12.20;99.90;;;;;;5067444;28;20500;-72
2023/10/28 09:55:14;;;;;;;7.82;3.67;;;12.10;99.90;;;;;;5074987;28;20052;-73
2023/10/28 09:57:44;;;;;;;7.27;3.23;;;12.20;99.90;;;;;;5073897;28;20048;-73
2023/10/28 10:00:17;;;;;;;6.85;4.15;;;12.20;99.90;;;;;;5071580;28;20365;-72
2023/10/28 10:02:58;;;;;;;6.47;3.65;;;12.20;99.90;;;;;;5075727;28;20102;-73
2023/10/28 10:05:31;;;;;;;9.75;4.20;;;12.10;99.90;;;;;;5072038;28;20047;-73
2023/10/28 10:07:58;;;;;;;8.45;4.10;;;12.10;99.90;;;;;;5073544;28;20131;-74
2023/10/28 10:10:25;;;;;;;6.70;3.88;;;12.20;99.90;;;;;;5074682;28;20048;-74
2023/10/28 10:13:02;;;;;;;11.00;3.45;;;12.10;99.90;;;;;;5075751;28;20097;-74
2023/10/28 10:15:34;;;;;;;7.53;4.15;;;12.10;99.90;;;;;;5072850;28;20083;-74
2023/10/28 10:18:09;;;;;;;7.53;3.63;;;12.10;99.90;;;;;;5073080;28;20082;-74
2023/10/28 10:20:43;;;;;;;7.70;3.90;;;12.10;99.90;;;;;;5071861;28;20083;-74
2023/10/28 10:23:11;;;;;;;5.45;3.33;;;12.00;99.90;;;;;;5089478;28;20044;-74
2023/10/28 10:25:40;;;;;;;9.52;3.85;;;11.90;99.90;;;;;;5075103;28;20109;-74
2023/10/28 10:28:15;;;;;;;7.35;4.10;;;12.00;99.90;;;;;;5075709;28;20489;-73
2023/10/28 10:30:43;;;;;;;7.75;3.83;;;11.90;99.90;;;;;;5072537;28;20105;-74
2023/10/28 10:33:10;;;;;;;7.18;3.22;;;11.90;99.90;;;;;;5074892;28;20160;-73
2023/10/28 10:35:38;;;;;;;6.20;3.38;;;11.80;99.90;;;;;;5074916;28;20080;-74
2023/10/28 10:38:06;;;;;;;8.95;3.97;;;11.90;99.90;;;;;;5075147;28;20062;-74
2023/10/28 10:40:34;;;;;;;7.70;3.22;;;11.90;99.90;;;;;;5092595;28;20067;-73
2023/10/28 10:43:08;;;;;;;9.73;3.65;;;12.00;99.90;;;;;;5075441;28;20094;-74
2023/10/28 10:45:37;;;;;;;5.10;3.28;;;12.10;99.90;;;;;;5070537;28;20135;-74
2023/10/28 10:48:07;;;;;;;9.10;3.25;;;12.10;99.90;;;;;;5075283;28;20454;-73
2023/10/28 10:50:37;;;;;;;8.70;3.90;;;12.10;99.90;;;;;;5075282;28;20056;-73
2023/10/28 10:53:04;;;;;;;8.32;3.83;;;12.10;99.90;;;;;;5074675;28;20044;-73
2023/10/28 10:55:31;;;;;;;5.68;3.22;;;12.10;99.90;;;;;;5093007;28;20044;-73
2023/10/28 10:57:59;;;;;;;6.85;3.40;;;12.00;99.90;;;;;;5074843;28;20044;-73
2023/10/28 11:00:26;;;;;;;7.63;3.72;;;12.00;99.90;;;;;;5074160;28;20058;-73
2023/10/28 11:02:58;;;;;;;9.20;3.97;;;12.10;99.90;;;;;;5074992;28;20397;-73
2023/10/28 11:05:29;;;;;;;6.30;3.10;;;12.10;99.90;;;;;;5075089;28;20044;-73
2023/10/28 11:07:57;;;;;;;5.45;3.08;;;12.20;99.90;;;;;;5078247;28;20066;-73
2023/10/28 11:10:24;;;;;;;8.27;3.58;;;12.30;99.90;;;;;;5074118;28;20044;-73
2023/10/28 11:12:51;;;;;;;8.93;3.63;;;12.30;99.90;;;;;;5074209;28;20404;-74
2023/10/28 11:15:21;;;;;;;9.30;3.40;;;12.40;99.90;;;;;;5074273;28;20043;-74
2023/10/28 11:17:50;;;;;;;5.75;3.20;;;12.40;99.90;;;;;;5070984;28;20403;-74
2023/10/28 11:20:20;;;;;;;8.98;3.83;;;12.50;99.90;;;;;;5071865;28;20043;-74
2023/10/28 11:22:47;;;;;;;6.25;3.20;;;12.60;99.90;;;;;;5051553;28;20052;-75
2023/10/28 11:25:15;;;;;;;6.38;3.70;;;12.50;99.90;;;;;;5069463;28;20131;-75
2023/10/28 11:27:42;;;;;;;6.80;3.42;;;12.50;99.90;;;;;;5063747;28;20084;-76
2023/10/28 11:30:09;;;;;;;7.13;3.20;;;11.60;99.90;;;;;;5065788;28;20040;-75
2023/10/28 11:32:40;;;;;;;7.55;3.53;;;12.50;99.90;;;;;;5069808;28;20099;-74
2023/10/28 11:35:10;;;;;;;5.43;2.88;;;12.50;99.90;;;;;;5069508;28;20130;-76
2023/10/28 11:37:40;;;;;;;8.77;3.20;;;12.50;99.90;;;;;;5086898;28;20486;-74
2023/10/28 11:40:11;;;;;;;6.07;3.20;;;12.50;99.90;;;;;;5072224;28;20150;-73
2023/10/28 11:42:38;;;;;;;7.35;2.92;;;12.60;99.90;;;;;;5070660;28;20066;-74
2023/10/28 11:45:06;;;;;;;5.65;2.92;;;12.60;99.90;;;;;;5071358;28;20055;-74
2023/10/28 11:47:34;;;;;;;5.90;2.72;;;12.60;99.90;;;;;;5069942;28;20126;-73
2023/10/28 11:50:01;;;;;;;6.47;3.00;;;12.70;99.90;;;;;;5072762;28;20043;-75
2023/10/28 11:52:27;;;;;;;7.78;3.38;;;12.70;99.90;;;;;;5065026;28;20049;-74
2023/10/28 11:54:56;;;;;;;7.72;2.83;;;12.80;99.90;;;;;;5064454;28;20117;-75
2023/10/28 11:57:23;;;;;;;8.68;3.00;;;12.80;99.90;;;;;;5088584;28;20115;-74
2023/10/28 11:59:50;;;;;;;6.60;2.75;;;12.80;99.90;;;;;;5062300;28;20075;-73
2023/10/28 12:02:17;;;;;;;6.60;2.97;;;12.80;99.90;;;;;;5059808;28;20497;-74
2023/10/28 12:04:44;;;;;;;7.13;2.75;;;12.90;99.90;;;;;;5072186;28;20056;-76
2023/10/28 12:07:11;;;;;;;6.95;3.28;;;12.90;99.90;;;;;;5086975;28;20056;-74
2023/10/28 12:09:38;;;;;;;8.52;2.72;;;12.90;99.90;;;;;;5071422;28;20048;-74
2023/10/28 12:12:09;;;;;;;6.43;2.95;;;13.20;99.90;;;;;;5068775;28;20105;-74
2023/10/28 12:14:36;;;;;;;8.70;3.03;;;12.80;99.90;;;;;;5071388;28;20127;-75
2023/10/28 12:17:04;;;;;;;6.32;3.15;;;12.80;99.90;;;;;;5063690;28;20057;-75
2023/10/28 12:19:31;;;;;;;6.85;2.88;;;12.80;99.90;;;;;;5070515;28;20056;-75
2023/10/28 12:21:57;;;;;;;7.45;2.92;;;12.80;99.90;;;;;;5067772;28;20055;-74
2023/10/28 12:24:24;;;;;;;7.10;3.10;;;12.80;99.90;;;;;;5070008;28;20176;-74
2023/10/28 12:26:53;;;;;;;5.82;3.40;;;12.80;99.90;;;;;;5067731;28;20503;-75
2023/10/28 12:29:21;;;;;;;10.70;3.10;;;12.70;99.90;;;;;;5070556;28;20097;-73
2023/10/28 12:31:48;;;;;;;4.80;2.55;;;12.80;99.90;;;;;;5071494;28;20052;-73
2023/10/28 12:34:15;;;;;;;4.40;3.28;;;12.80;99.90;;;;;;5069109;28;20048;-73
2023/10/28 12:36:43;;;;;;;6.00;2.55;;;12.80;99.90;;;;;;5071151;28;20051;-75
2023/10/28 12:39:10;;;;;;;5.55;2.78;;;12.80;99.90;;;;;;5067267;28;20070;-74
2023/10/28 12:41:37;;;;;;;6.25;3.03;;;12.80;99.90;;;;;;5068873;28;20051;-74